首页
METAR-TAF:

METAR-TAF

机场 :

Johnson County Executive Airport

奧拉西, 堪薩斯州, 美国

纬度: 38-51-00N, 经度: 094-44-21W, 海拔: 334米

当前天气观测

该预报发布于49分钟前的14:53 UTC
风速5节,风向北转东北
温度 22°C
湿度 73%
气压 1021 hPa
能見度: 16.1公里
阴天层高于11000英尺

METAR: KOJC 211453Z 02005KT 10SM OVC110 22/17 A3015 RMK AO2 SLP200 T02170167 50004

时间: 10:42 (15:42 UTC)


TAF: 丢失

超过4000个机场的气象观测和天气预报(METAR&TAF报告)。

可查询的气象台以黄色和红色小点在地图上表示。

将鼠标移到小点上方,可查看气象台名称。

然后点击查看天气观测和预报。

如需切换地图:点击带黑十字的绿色按钮放大地图;点击带横线的绿色按钮缩小地图;或者点击绿色箭头查看邻近地区的地图。


METAR-TAF: